Time;durP1;ratioP1;P1;durP2;ratioP2;P2;SDS_P1;SDS_P2;PMS_P1;PMS_P2;Temp;Humidity;BMP_temperature;BMP_pressure;BME280_temperature;BME280_humidity;BME280_pressure;Samples;Min_cycle;Max_cycle;Signal;HPM_P1;HPM_P2
2021/08/28 00:00:00;;;;;;;8.13;4.72;;;;;;;15.79;76.51;102125.03;4896032;29;20031;-86
2021/08/28 00:02:25;;;;;;;7.82;4.70;;;;;;;15.79;76.49;102131.28;4897398;29;20032;-85
2021/08/28 00:04:53;;;;;;;8.55;5.30;;;;;;;15.62;76.53;102110.66;4883129;29;20036;-85
2021/08/28 00:07:18;;;;;;;10.50;4.75;;;;;;;15.72;76.70;102135.75;4869415;29;20032;-85
2021/08/28 00:09:44;;;;;;;7.13;4.60;;;;;;;15.65;76.83;102140.13;4881958;29;20043;-86
2021/08/28 00:12:10;;;;;;;8.77;4.35;;;;;;;15.60;77.64;102137.94;4886634;29;20035;-85
2021/08/28 00:14:35;;;;;;;8.32;4.60;;;;;;;15.53;77.52;102133.41;4879841;29;20036;-86
2021/08/28 00:17:01;;;;;;;9.15;5.00;;;;;;;15.52;77.60;102131.72;4877854;29;20036;-85
2021/08/28 00:19:27;;;;;;;7.22;5.22;;;;;;;15.51;77.73;102135.47;4894886;29;20038;-85
2021/08/28 00:21:52;;;;;;;10.13;4.75;;;;;;;15.52;77.59;102137.97;4880662;29;20032;-85
2021/08/28 00:24:18;;;;;;;11.05;5.22;;;;;;;15.46;77.38;102125.13;4875298;29;20056;-85
2021/08/28 00:26:44;;;;;;;10.43;4.75;;;;;;;15.57;77.49;102143.72;4896627;29;20486;-85
2021/08/28 00:29:09;;;;;;;8.63;4.93;;;;;;;15.53;77.43;102133.41;4901519;29;20488;-84
2021/08/28 00:31:35;;;;;;;10.60;5.05;;;;;;;15.47;77.75;102136.81;4886912;29;20036;-85
2021/08/28 00:34:00;;;;;;;8.68;4.80;;;;;;;15.41;77.57;102137.53;4885134;29;20028;-85
2021/08/28 00:36:27;;;;;;;8.57;5.05;;;;;;;15.31;77.69;102135.00;4885901;29;20484;-85
2021/08/28 00:38:52;;;;;;;10.82;5.65;;;;;;;15.28;78.40;102143.47;4899769;29;20066;-86
2021/08/28 00:41:18;;;;;;;11.13;5.45;;;;;;;15.25;78.26;102139.25;4896325;29;20746;-85
2021/08/28 00:43:43;;;;;;;11.98;5.75;;;;;;;15.25;77.80;102141.13;4886561;29;20071;-85
2021/08/28 00:46:09;;;;;;;9.07;5.00;;;;;;;15.17;78.20;102133.84;4867873;29;20039;-85
2021/08/28 00:48:35;;;;;;;6.95;4.30;;;;;;;15.01;78.16;102128.47;4897029;29;20032;-85
2021/08/28 00:51:00;;;;;;;6.78;4.55;;;;;;;15.09;78.38;102145.53;4869929;29;20109;-86
2021/08/28 00:53:26;;;;;;;9.57;4.63;;;;;;;15.13;77.90;102152.28;4886056;29;20039;-85
2021/08/28 00:55:54;;;;;;;9.00;5.03;;;;;;;15.09;78.07;102144.72;4893679;29;20507;-85
2021/08/28 00:58:21;;;;;;;8.55;5.40;;;;;;;15.06;78.16;102134.22;4901229;29;21667;-85
2021/08/28 01:01:08;;;;;;;8.88;4.80;;;;;;;15.20;77.63;102141.63;4872502;29;20035;-85
2021/08/28 01:03:34;;;;;;;10.23;5.60;;;;;;;15.24;77.79;102145.69;4898877;29;20460;-86
2021/08/28 01:06:12;;;;;;;10.07;6.15;;;;;;;15.21;78.78;102135.19;4894560;29;20078;-85
2021/08/28 01:08:41;;;;;;;11.60;5.38;;;;;;;15.15;78.86;102144.84;4877965;29;20181;-86
2021/08/28 01:11:22;;;;;;;9.27;4.85;;;;;;;15.10;78.80;102151.81;4883263;29;20028;-85
2021/08/28 01:13:56;;;;;;;8.95;5.07;;;;;;;15.06;78.73;102151.31;4883560;29;20040;-86
2021/08/28 01:16:22;;;;;;;8.70;5.18;;;;;;;14.93;78.71;102137.44;4884289;29;20040;-85
2021/08/28 01:18:50;;;;;;;10.18;5.32;;;;;;;14.85;78.99;102140.16;4896569;29;20024;-86
2021/08/28 01:21:29;;;;;;;8.82;4.65;;;;;;;14.83;78.81;102148.44;4880259;29;20032;-85
2021/08/28 01:23:58;;;;;;;10.23;5.07;;;;;;;14.82;79.02;102148.59;4900546;29;20028;-86
2021/08/28 01:26:27;;;;;;;9.60;4.72;;;;;;;14.81;78.83;102147.75;4898398;29;20024;-85
2021/08/28 01:28:57;;;;;;;9.30;4.90;;;;;;;14.83;78.49;102153.88;4895409;29;20052;-85
2021/08/28 01:31:23;;;;;;;7.40;4.43;;;;;;;14.76;78.71;102142.00;4895151;29;20023;-85
2021/08/28 01:33:50;;;;;;;8.68;4.90;;;;;;;14.76;78.95;102138.47;4890628;29;20024;-85
2021/08/28 01:36:16;;;;;;;9.27;5.00;;;;;;;14.84;78.96;102152.84;4884342;29;20047;-85
2021/08/28 01:38:43;;;;;;;10.30;5.47;;;;;;;14.85;79.02;102153.72;4900688;29;20032;-85
2021/08/28 01:41:09;;;;;;;9.07;4.68;;;;;;;14.89;78.57;102147.75;4882389;29;20046;-85
2021/08/28 01:43:35;;;;;;;9.75;5.18;;;;;;;14.89;78.39;102153.16;4901440;29;20044;-85
2021/08/28 01:46:02;;;;;;;14.63;6.15;;;;;;;14.73;78.35;102137.78;4873543;29;20087;-85
2021/08/28 01:48:28;;;;;;;6.88;4.70;;;;;;;14.79;78.74;102155.22;4870367;29;20123;-86
2021/08/28 01:50:54;;;;;;;8.43;5.15;;;;;;;14.77;79.04;102154.56;4871560;29;20036;-85
2021/08/28 01:53:20;;;;;;;7.93;4.50;;;;;;;14.72;78.71;102151.50;4880239;29;20575;-85
2021/08/28 01:55:45;;;;;;;10.73;5.28;;;;;;;14.72;79.01;102159.63;4883105;29;20024;-85
2021/08/28 01:58:12;;;;;;;10.63;5.40;;;;;;;14.72;78.84;102165.03;4881780;29;20392;-85
2021/08/28 02:00:38;;;;;;;10.25;5.32;;;;;;;14.65;79.13;102161.31;4896541;29;20067;-85
2021/08/28 02:03:03;;;;;;;9.98;5.55;;;;;;;14.65;79.39;102159.44;4900501;29;20052;-85
2021/08/28 02:05:32;;;;;;;11.30;5.25;;;;;;;14.67;79.22;102165.53;4882742;29;20039;-85
2021/08/28 02:08:05;;;;;;;9.85;4.75;;;;;;;14.73;78.83;102167.56;4892286;29;20572;-85
2021/08/28 02:10:33;;;;;;;;;;;;;;;14.76;78.98;102158.25;4884737;29;20051;-85
2021/08/28 02:13:03;;;;;;;10.63;5.15;;;;;;;14.74;78.29;102163.03;4924623;29;20432;-85
2021/08/28 02:15:46;;;;;;;8.70;4.55;;;;;;;14.70;78.32;102158.94;4909798;29;20056;-85
2021/08/28 02:18:27;;;;;;;10.50;5.60;;;;;;;14.70;78.52;102180.59;4890157;29;20024;-85
2021/08/28 02:20:59;;;;;;;9.55;4.50;;;;;;;14.61;78.41;102165.38;4882307;29;20387;-85
2021/08/28 02:23:46;;;;;;;9.80;4.57;;;;;;;14.66;78.50;102177.41;4892095;29;20032;-86
2021/08/28 02:26:19;;;;;;;9.07;5.10;;;;;;;14.68;78.22;102179.91;4898513;29;20036;-86
2021/08/28 02:29:02;;;;;;;7.90;4.57;;;;;;;14.61;78.32;102173.50;4899258;29;20092;-85
2021/08/28 02:31:41;;;;;;;7.60;4.60;;;;;;;14.60;78.04;102188.88;4869121;29;20028;-85
2021/08/28 02:34:08;;;;;;;8.52;4.30;;;;;;;14.53;78.51;102182.44;4895849;29;20481;-85
2021/08/28 02:36:34;;;;;;;9.02;4.80;;;;;;;14.47;78.71;102188.47;4879027;29;20076;-85
2021/08/28 02:39:01;;;;;;;9.38;4.80;;;;;;;14.47;78.81;102192.06;4908041;29;20035;-85
2021/08/28 02:41:27;;;;;;;10.13;4.55;;;;;;;14.46;78.51;102193.06;4899181;29;20739;-85
2021/08/28 02:43:55;;;;;;;7.30;4.65;;;;;;;14.45;78.02;102190.53;4877942;29;20020;-85
2021/08/28 02:46:20;;;;;;;7.90;4.30;;;;;;;14.43;78.25;102190.69;4901914;29;20088;-85
2021/08/28 02:48:46;;;;;;;7.68;4.45;;;;;;;14.35;78.07;102189.84;4888004;29;20471;-85
2021/08/28 02:51:12;;;;;;;9.50;4.75;;;;;;;14.38;78.30;102197.63;4884283;29;20437;-85
2021/08/28 02:53:40;;;;;;;8.68;4.45;;;;;;;14.30;78.08;102195.72;4883465;29;20044;-86
2021/08/28 02:56:07;;;;;;;11.85;4.95;;;;;;;14.19;78.54;102188.78;4879555;29;20034;-85
2021/08/28 02:58:33;;;;;;;7.85;4.32;;;;;;;14.17;78.06;102192.66;4904950;29;20032;-86
2021/08/28 03:00:59;;;;;;;9.05;4.65;;;;;;;14.15;78.68;102192.81;4883626;29;20047;-85
2021/08/28 03:03:25;;;;;;;9.10;4.55;;;;;;;13.95;78.73;102176.00;4883229;29;20032;-85
2021/08/28 03:05:53;;;;;;;7.65;4.65;;;;;;;14.07;78.58;102200.88;4882126;29;20020;-85
2021/08/28 03:08:19;;;;;;;10.80;4.88;;;;;;;14.09;78.39;102188.06;4883689;29;20091;-86
2021/08/28 03:10:46;;;;;;;6.50;4.25;;;;;;;13.97;78.59;102202.88;4866366;29;20028;-85
2021/08/28 03:13:11;;;;;;;7.15;4.05;;;;;;;13.81;78.79;102192.84;4894575;29;20547;-86
2021/08/28 03:15:37;;;;;;;5.78;3.25;;;;;;;13.57;79.32;102164.69;4877032;29;20027;-86
2021/08/28 03:18:06;;;;;;;6.28;3.42;;;;;;;13.66;79.51;102192.63;4873763;29;20024;-85
2021/08/28 03:20:33;;;;;;;8.65;4.00;;;;;;;13.60;79.77;102195.94;4904680;29;20041;-86
2021/08/28 03:22:59;;;;;;;5.15;3.70;;;;;;;13.56;80.22;102190.03;4905806;29;20032;-85
2021/08/28 03:25:27;;;;;;;8.75;4.07;;;;;;;13.54;80.14;102196.59;4889890;29;20090;-85
2021/08/28 03:27:53;;;;;;;5.90;3.97;;;;;;;13.54;80.18;102191.19;4886646;29;20028;-86
2021/08/28 03:30:20;;;;;;;9.05;4.43;;;;;;;13.46;80.32;102169.53;4888493;29;20063;-88
2021/08/28 03:32:47;;;;;;;6.50;4.05;;;;;;;13.52;80.81;102183.25;4889567;29;20032;-87
2021/08/28 03:35:13;;;;;;;7.78;3.97;;;;;;;13.41;80.26;102175.41;4888845;29;20130;-90
2021/08/28 03:37:39;;;;;;;7.68;3.55;;;;;;;13.37;80.56;102180.28;4887380;29;20143;-86
2021/08/28 03:40:07;;;;;;;7.30;3.47;;;;;;;13.30;80.16;102186.47;4888909;29;20048;-86
2021/08/28 03:42:33;;;;;;;6.20;3.55;;;;;;;13.13;80.47;102172.84;4889323;29;20028;-86
2021/08/28 03:44:59;;;;;;;7.10;3.65;;;;;;;13.10;80.55;102183.97;4904074;29;20316;-85
2021/08/28 03:47:24;;;;;;;6.97;3.50;;;;;;;13.10;80.73;102186.66;4872640;29;20050;-84
2021/08/28 03:49:50;;;;;;;5.03;3.13;;;;;;;12.87;81.45;102175.50;4901616;29;20032;-85
2021/08/28 03:52:16;;;;;;;5.15;2.70;;;;;;;12.80;81.97;102165.50;4891205;29;20028;-87
2021/08/28 03:54:41;;;;;;;7.60;4.20;;;;;;;12.83;82.33;102173.28;4906952;29;20558;-87
2021/08/28 03:57:07;;;;;;;6.85;3.60;;;;;;;12.86;82.01;102164.84;4890991;29;20558;-85
2021/08/28 03:59:32;;;;;;;7.40;3.95;;;;;;;12.83;82.65;102154.38;4891096;29;20509;-85
2021/08/28 04:01:58;;;;;;;6.78;3.47;;;;;;;12.96;82.50;102173.72;4890650;29;20083;-85
2021/08/28 04:04:24;;;;;;;6.07;3.55;;;;;;;12.85;82.70;102174.81;4901118;29;20035;-87
2021/08/28 04:06:49;;;;;;;6.38;4.00;;;;;;;12.65;82.96;102151.69;4921792;29;20024;-86
2021/08/28 04:09:15;;;;;;;9.73;4.30;;;;;;;12.90;83.19;102179.75;4891159;29;20419;-87
2021/08/28 04:11:43;;;;;;;7.55;4.60;;;;;;;12.95;83.49;102183.66;4906128;29;20024;-85
2021/08/28 04:14:08;;;;;;;8.93;4.25;;;;;;;12.97;83.93;102184.38;4879061;29;20025;-86
2021/08/28 04:16:34;;;;;;;8.07;4.63;;;;;;;13.05;84.10;102189.00;4905157;29;20388;-87
2021/08/28 04:19:00;;;;;;;7.78;4.07;;;;;;;12.96;84.35;102187.22;4875278;29;20048;-85
2021/08/28 04:21:25;;;;;;;6.82;4.45;;;;;;;12.94;84.42;102189.25;4891062;29;20131;-85
2021/08/28 04:23:51;;;;;;;10.10;4.63;;;;;;;12.89;84.97;102186.16;4884243;29;20029;-86
2021/08/28 04:26:17;;;;;;;8.52;4.80;;;;;;;13.05;85.05;102199.78;4890846;29;20028;-88
2021/08/28 04:28:42;;;;;;;9.88;4.80;;;;;;;13.17;84.83;102195.81;4890836;29;20040;-87
2021/08/28 04:31:08;;;;;;;8.77;4.93;;;;;;;13.33;84.76;102200.50;4888519;29;20020;-85
2021/08/28 04:33:34;;;;;;;9.10;5.18;;;;;;;13.43;84.58;102194.16;4904521;29;20032;-85
2021/08/28 04:35:59;;;;;;;11.60;5.53;;;;;;;13.53;84.81;102198.44;4905672;29;20024;-86
2021/08/28 04:38:25;;;;;;;12.18;5.65;;;;;;;13.68;85.10;102205.94;4889248;29;20035;-88
2021/08/28 04:40:53;;;;;;;9.73;5.78;;;;;;;13.73;85.18;102207.16;4899551;29;20039;-86
2021/08/28 04:43:20;;;;;;;13.85;6.20;;;;;;;13.75;85.14;102205.16;4877123;29;20068;-87
2021/08/28 04:45:46;;;;;;;10.73;5.82;;;;;;;13.77;85.71;102200.44;4888791;29;20044;-85
2021/08/28 04:48:11;;;;;;;12.52;7.32;;;;;;;13.81;86.19;102206.34;4889267;29;20567;-86
2021/08/28 04:50:37;;;;;;;11.77;6.20;;;;;;;13.86;85.99;102195.91;4890013;29;20103;-86
2021/08/28 04:53:02;;;;;;;14.13;6.75;;;;;;;13.93;86.12;102210.47;4894972;29;20074;-85
2021/08/28 04:55:29;;;;;;;12.20;6.70;;;;;;;13.98;85.91;102210.00;4890482;29;20028;-85
2021/08/28 04:57:56;;;;;;;14.48;6.97;;;;;;;14.06;86.38;102213.56;4886544;29;20176;-87
2021/08/28 05:00:21;;;;;;;15.25;7.57;;;;;;;14.15;85.91;102206.31;4878418;29;20055;-88
2021/08/28 05:02:47;;;;;;;14.93;8.85;;;;;;;14.25;85.62;102206.19;4873092;29;20048;-87
2021/08/28 05:05:13;;;;;;;15.40;7.05;;;;;;;14.26;85.42;102200.63;4891051;29;20032;-85
2021/08/28 05:07:38;;;;;;;19.60;7.65;;;;;;;14.16;85.70;102180.16;4883321;29;20506;-85
2021/08/28 05:10:04;;;;;;;13.82;8.02;;;;;;;14.10;86.03;102175.38;4906376;29;20414;-85
2021/08/28 05:12:30;;;;;;;15.20;7.45;;;;;;;14.26;85.97;102194.34;4903493;29;20035;-86
2021/08/28 05:15:03;;;;;;;15.57;7.57;;;;;;;14.32;85.72;102203.69;4883515;29;20036;-86
2021/08/28 05:17:29;;;;;;;20.40;8.65;;;;;;;14.28;85.83;102206.69;4888190;29;20046;-85
2021/08/28 05:19:54;;;;;;;14.85;8.45;;;;;;;14.34;85.64;102204.34;4906391;29;20122;-86
2021/08/28 05:22:20;;;;;;;16.02;7.53;;;;;;;14.41;85.62;102205.41;4904571;29;20036;-85
2021/08/28 05:24:46;;;;;;;15.45;8.68;;;;;;;14.36;85.62;102194.22;4873487;29;20028;-85
2021/08/28 05:27:11;;;;;;;16.10;8.07;;;;;;;14.39;85.97;102197.44;4880896;29;20048;-85
2021/08/28 05:29:37;;;;;;;16.25;8.23;;;;;;;14.37;85.83;102199.47;4904415;29;20091;-85
2021/08/28 05:32:03;;;;;;;15.98;8.85;;;;;;;14.34;85.95;102205.19;4889492;29;20032;-88
2021/08/28 05:34:28;;;;;;;12.70;7.53;;;;;;;14.27;85.99;102198.78;4889773;29;20027;-88
2021/08/28 05:36:54;;;;;;;16.17;8.48;;;;;;;14.35;86.16;102217.72;4874872;29;20471;-85
2021/08/28 05:39:20;;;;;;;14.35;7.75;;;;;;;14.29;85.85;102203.00;4888268;29;20043;-88
2021/08/28 05:41:45;;;;;;;17.70;8.70;;;;;;;14.29;86.54;102207.56;4871924;29;20031;-85
2021/08/28 05:44:11;;;;;;;16.33;8.15;;;;;;;14.16;86.54;102190.97;4906404;29;20020;-87
2021/08/28 05:46:37;;;;;;;14.65;8.73;;;;;;;14.19;86.67;102204.16;4906574;29;20064;-86
2021/08/28 05:49:03;;;;;;;15.73;8.43;;;;;;;14.26;86.56;102216.00;4890998;29;20032;-86
2021/08/28 05:51:28;;;;;;;15.07;8.00;;;;;;;14.29;86.91;102218.41;4907138;29;20032;-87
2021/08/28 05:53:54;;;;;;;14.75;7.90;;;;;;;14.40;86.62;102228.06;4891511;29;20039;-86
2021/08/28 05:56:19;;;;;;;15.35;8.68;;;;;;;14.42;86.38;102223.31;4887412;29;20031;-87
2021/08/28 05:58:45;;;;;;;14.43;8.35;;;;;;;14.44;86.20;102219.44;4876165;29;20032;-85
2021/08/28 06:01:11;;;;;;;15.85;8.63;;;;;;;14.49;86.09;102229.75;4891107;29;20031;-86
2021/08/28 06:03:36;;;;;;;21.98;9.45;;;;;;;14.49;86.24;102230.59;4876758;29;20035;-86
2021/08/28 06:06:02;;;;;;;16.88;8.57;;;;;;;14.40;86.75;102231.63;4875734;29;20031;-88
2021/08/28 06:08:27;;;;;;;17.88;9.07;;;;;;;14.37;86.79;102231.94;4872467;29;20128;-85
2021/08/28 06:10:53;;;;;;;17.98;9.30;;;;;;;14.33;86.98;102230.56;4874042;29;20048;-87
2021/08/28 06:13:19;;;;;;;18.08;8.98;;;;;;;14.25;87.29;102231.38;4892026;29;20052;-86
2021/08/28 06:15:44;;;;;;;18.05;9.50;;;;;;;14.36;87.21;102230.22;4874009;29;20056;-85
2021/08/28 06:18:10;;;;;;;22.13;10.23;;;;;;;14.49;87.05;102241.44;4890124;29;20167;-85
2021/08/28 06:20:35;;;;;;;21.80;10.10;;;;;;;14.50;86.81;102237.72;4895767;29;20038;-86
2021/08/28 06:23:01;;;;;;;22.92;9.98;;;;;;;14.42;87.47;102231.44;4887922;29;20039;-88
2021/08/28 06:25:27;;;;;;;21.85;9.52;;;;;;;14.47;87.65;102246.19;4892437;29;20056;-85
2021/08/28 06:27:52;;;;;;;24.90;10.05;;;;;;;14.45;88.01;102237.38;4888710;29;20031;-85
2021/08/28 06:30:18;;;;;;;23.23;10.20;;;;;;;14.48;87.83;102238.91;4886309;29;20107;-86
2021/08/28 06:32:43;;;;;;;22.95;10.10;;;;;;;14.48;88.70;102244.31;4880933;29;20032;-85
2021/08/28 06:35:09;;;;;;;23.27;10.07;;;;;;;14.50;88.57;102243.16;4879306;29;20241;-85
2021/08/28 06:37:35;;;;;;;23.30;9.65;;;;;;;14.50;88.86;102237.72;4894673;29;20104;-85
2021/08/28 06:40:00;;;;;;;26.45;10.13;;;;;;;14.61;88.74;102241.19;4874568;29;20036;-84
2021/08/28 06:42:26;;;;;;;23.42;9.70;;;;;;;14.66;88.53;102246.91;4888287;29;20032;-85
2021/08/28 06:44:52;;;;;;;21.38;9.25;;;;;;;14.58;88.79;102242.34;4865187;29;20087;-85
2021/08/28 06:47:17;;;;;;;19.23;9.27;;;;;;;14.59;89.16;102238.63;4880678;29;20036;-85
2021/08/28 06:49:43;;;;;;;23.08;10.00;;;;;;;14.59;89.30;102245.91;4882589;29;20035;-86
2021/08/28 06:52:09;;;;;;;22.27;9.98;;;;;;;14.58;89.56;102244.19;4867932;29;20020;-86
2021/08/28 06:54:34;;;;;;;24.73;10.55;;;;;;;14.60;89.64;102248.44;4895011;29;20391;-85
2021/08/28 06:57:00;;;;;;;25.48;10.30;;;;;;;14.65;89.61;102250.63;4861973;29;20087;-86
2021/08/28 06:59:25;;;;;;;21.48;10.05;;;;;;;14.69;89.60;102260.13;4879644;29;20044;-85
2021/08/28 07:01:51;;;;;;;25.58;10.45;;;;;;;14.69;89.67;102258.28;4878101;29;20028;-86
2021/08/28 07:04:17;;;;;;;20.15;9.68;;;;;;;14.73;89.46;102250.66;4866777;29;20032;-86
2021/08/28 07:06:42;;;;;;;27.70;10.65;;;;;;;14.70;89.73;102251.00;4882330;29;20363;-86
2021/08/28 07:09:08;;;;;;;22.92;10.48;;;;;;;14.77;89.50;102253.91;4898876;29;20023;-85
2021/08/28 07:11:33;;;;;;;21.58;9.68;;;;;;;14.80;89.53;102262.53;4880045;29;20042;-87
2021/08/28 07:13:59;;;;;;;22.40;9.70;;;;;;;14.75;89.78;102256.75;4865236;29;20111;-86
2021/08/28 07:16:25;;;;;;;22.38;10.75;;;;;;;14.78;89.94;102261.00;4871835;29;20031;-86
2021/08/28 07:18:51;;;;;;;20.58;9.98;;;;;;;14.78;89.62;102256.41;4864964;29;20024;-85
2021/08/28 07:21:18;;;;;;;19.35;8.82;;;;;;;14.85;89.47;102262.03;4895157;29;20035;-85
2021/08/28 07:23:44;;;;;;;13.32;7.18;;;;;;;14.76;88.93;102258.44;4879779;29;20111;-85
2021/08/28 07:26:10;;;;;;;13.55;6.88;;;;;;;14.71;88.66;102266.22;4902471;29;20127;-86
2021/08/28 07:28:36;;;;;;;12.80;6.78;;;;;;;14.67;87.55;102265.72;4880653;29;20052;-85
2021/08/28 07:31:02;;;;;;;14.45;7.07;;;;;;;14.54;87.03;102256.38;4889013;29;20044;-86
2021/08/28 07:33:33;;;;;;;13.20;6.85;;;;;;;14.43;87.16;102261.03;4861290;29;20028;-86
2021/08/28 07:35:59;;;;;;;15.23;7.03;;;;;;;14.41;87.40;102270.34;4884211;29;20512;-87
2021/08/28 07:38:24;;;;;;;20.00;7.63;;;;;;;14.29;87.13;102248.16;4877840;29;20625;-85
2021/08/28 07:40:50;;;;;;;19.15;8.27;;;;;;;14.39;86.68;102239.88;4900422;29;20416;-86
2021/08/28 07:43:16;;;;;;;18.08;7.03;;;;;;;14.56;86.67;102263.31;4902835;29;20506;-86
2021/08/28 07:45:41;;;;;;;21.10;8.23;;;;;;;14.56;86.84;102274.16;4869566;29;20032;-86
2021/08/28 07:48:07;;;;;;;24.95;8.32;;;;;;;14.66;86.31;102279.41;4885672;29;20032;-84
2021/08/28 07:50:33;;;;;;;24.80;8.68;;;;;;;14.67;86.09;102281.94;4889364;29;20020;-85
2021/08/28 07:52:58;;;;;;;21.92;7.57;;;;;;;14.58;86.15;102268.56;4872263;29;20038;-84
2021/08/28 07:55:27;;;;;;;14.57;6.70;;;;;;;14.78;85.95;102294.31;4903234;29;20028;-86
2021/08/28 07:57:53;;;;;;;18.70;7.55;;;;;;;14.81;86.03;102293.16;4871152;29;20035;-85
2021/08/28 08:00:19;;;;;;;12.43;7.43;;;;;;;14.84;85.95;102298.22;4883640;29;20029;-85
2021/08/28 08:02:45;;;;;;;13.77;7.38;;;;;;;14.86;85.38;102302.47;4875659;29;20036;-85
2021/08/28 08:05:10;;;;;;;12.65;7.53;;;;;;;14.82;85.37;102293.00;4915216;29;20099;-85
2021/08/28 08:07:36;;;;;;;11.63;6.80;;;;;;;14.85;85.06;102306.19;4900502;29;20131;-85
2021/08/28 08:10:03;;;;;;;11.20;6.65;;;;;;;14.86;85.27;102310.59;4856156;29;20028;-85
2021/08/28 08:12:29;;;;;;;13.65;7.50;;;;;;;14.66;84.96;102282.97;4871754;29;20035;-85
2021/08/28 08:14:54;;;;;;;16.45;7.97;;;;;;;14.74;85.32;102301.09;4875711;29;20044;-85
2021/08/28 08:17:20;;;;;;;15.40;8.07;;;;;;;14.81;85.46;102302.13;4881012;29;20373;-85
2021/08/28 08:19:46;;;;;;;13.60;7.35;;;;;;;14.88;84.65;102300.44;4874759;29;20036;-86
2021/08/28 08:22:11;;;;;;;16.17;8.20;;;;;;;14.97;84.47;102308.56;4880002;29;20024;-85
2021/08/28 08:24:37;;;;;;;18.48;8.35;;;;;;;15.04;84.22;102296.06;4888764;29;20040;-84
2021/08/28 08:27:03;;;;;;;13.55;7.82;;;;;;;15.17;84.01;102312.69;4879660;29;20024;-83
2021/08/28 08:29:28;;;;;;;15.10;7.53;;;;;;;15.11;83.96;102303.34;4893285;29;20035;-83
2021/08/28 08:31:54;;;;;;;14.90;8.27;;;;;;;15.06;84.09;102294.88;4898077;29;20036;-83
2021/08/28 08:34:23;;;;;;;17.15;9.02;;;;;;;15.15;83.97;102309.28;4884639;29;20036;-84
2021/08/28 08:36:49;;;;;;;16.42;8.38;;;;;;;15.21;83.65;102308.59;4881748;29;20645;-84
2021/08/28 08:39:15;;;;;;;16.52;10.15;;;;;;;15.23;83.94;102303.88;4881374;29;20145;-85
2021/08/28 08:41:44;;;;;;;19.60;9.93;;;;;;;15.34;83.67;102305.38;4878457;29;20031;-85
2021/08/28 08:44:12;;;;;;;17.30;8.65;;;;;;;15.32;83.85;102289.31;4885388;29;20028;-83
2021/08/28 08:46:38;;;;;;;20.63;8.35;;;;;;;15.47;83.29;102303.00;4900884;29;20043;-84
2021/08/28 08:49:05;;;;;;;16.10;9.00;;;;;;;15.38;83.31;102306.75;4884345;29;20028;-84
2021/08/28 08:51:31;;;;;;;14.93;8.05;;;;;;;15.42;83.30;102307.25;4883074;29;20475;-83
2021/08/28 08:53:57;;;;;;;18.02;9.23;;;;;;;15.47;82.95;102304.88;4891577;29;20209;-84
2021/08/28 08:56:23;;;;;;;14.48;8.02;;;;;;;15.50;82.58;102302.66;4897562;29;20607;-84
2021/08/28 08:58:51;;;;;;;16.70;8.88;;;;;;;15.53;82.21;102317.75;4885855;29;20071;-85
2021/08/28 09:01:17;;;;;;;16.10;8.57;;;;;;;15.39;82.78;102303.00;4888568;29;20522;-84
2021/08/28 09:03:42;;;;;;;13.57;8.02;;;;;;;15.47;82.60;102308.44;4881403;29;20024;-85
2021/08/28 09:06:08;;;;;;;18.42;8.73;;;;;;;15.42;82.86;102309.97;4908517;29;20428;-84
2021/08/28 09:08:34;;;;;;;17.42;9.05;;;;;;;15.47;83.00;102313.84;4881981;29;20388;-86
2021/08/28 09:11:00;;;;;;;17.52;9.48;;;;;;;15.44;83.22;102310.66;4892943;29;20904;-85
2021/08/28 09:13:26;;;;;;;20.17;10.48;;;;;;;15.55;83.20;102321.13;4869773;29;20029;-85
2021/08/28 09:15:55;;;;;;;17.23;9.30;;;;;;;15.52;82.96;102318.78;4867022;29;20055;-85
2021/08/28 09:18:21;;;;;;;19.83;10.43;;;;;;;15.53;82.96;102320.44;4875990;29;20399;-83
2021/08/28 09:20:48;;;;;;;19.80;10.68;;;;;;;15.50;83.16;102316.22;4894149;29;20028;-83
2021/08/28 09:23:16;;;;;;;18.88;10.10;;;;;;;15.53;83.09;102315.91;4904680;29;20409;-85
2021/08/28 09:25:45;;;;;;;19.15;9.57;;;;;;;15.47;83.35;102311.13;4894258;29;20032;-85
2021/08/28 09:28:11;;;;;;;18.80;9.52;;;;;;;15.46;83.73;102322.16;4885879;29;20042;-86
2021/08/28 09:30:39;;;;;;;17.58;9.50;;;;;;;15.62;83.51;102327.56;4875574;29;20043;-85
2021/08/28 09:33:09;;;;;;;23.23;11.23;;;;;;;15.64;83.13;102321.97;4898401;29;20028;-85
2021/08/28 09:35:40;;;;;;;20.50;11.10;;;;;;;15.77;82.94;102320.47;4885812;29;20030;-86
2021/08/28 09:38:06;;;;;;;21.10;11.00;;;;;;;15.86;82.54;102321.31;4876488;29;20120;-85
2021/08/28 09:40:43;;;;;;;19.27;10.27;;;;;;;15.91;82.63;102326.22;4880036;29;20029;-86
2021/08/28 09:43:15;;;;;;;19.30;9.98;;;;;;;15.91;82.49;102323.50;4892840;29;20024;-86
2021/08/28 09:45:41;;;;;;;22.42;10.48;;;;;;;15.87;82.49;102322.97;4874909;29;20036;-85
2021/08/28 09:48:08;;;;;;;20.08;10.65;;;;;;;15.83;82.80;102330.63;4866667;29;20034;-85
2021/08/28 09:50:42;;;;;;;23.38;11.15;;;;;;;15.83;82.95;102327.91;4889580;29;20411;-85
2021/08/28 09:53:16;;;;;;;22.05;11.10;;;;;;;15.98;82.30;102319.06;4871043;29;20488;-85
2021/08/28 09:55:43;;;;;;;20.98;10.75;;;;;;;16.08;81.94;102327.84;4881182;29;20052;-85
2021/08/28 09:58:10;;;;;;;24.85;10.93;;;;;;;16.16;81.58;102326.97;4870550;29;20028;-85
2021/08/28 10:00:44;;;;;;;19.70;10.73;;;;;;;16.22;81.57;102323.56;4887260;29;20464;-84
2021/08/28 10:03:10;;;;;;;21.65;11.50;;;;;;;16.30;81.47;102323.56;4893389;29;20107;-86
2021/08/28 10:05:38;;;;;;;23.88;12.15;;;;;;;16.49;79.89;102325.00;4882791;29;20115;-85
2021/08/28 10:08:06;;;;;;;20.80;10.98;;;;;;;16.60;79.18;102310.19;4895092;29;20437;-85
2021/08/28 10:10:34;;;;;;;20.60;10.82;;;;;;;16.78;78.85;102316.22;4882229;29;20037;-85
2021/08/28 10:13:02;;;;;;;21.15;11.70;;;;;;;16.99;77.93;102323.75;4895789;29;20392;-86
2021/08/28 10:15:29;;;;;;;22.25;11.30;;;;;;;17.08;77.21;102321.81;4894181;29;20501;-85
2021/08/28 10:17:56;;;;;;;18.65;10.70;;;;;;;16.89;77.33;102296.78;4908755;29;20048;-85
2021/08/28 10:20:23;;;;;;;21.17;11.13;;;;;;;17.14;77.41;102324.63;4870307;29;20124;-85
2021/08/28 10:22:54;;;;;;;18.38;10.02;;;;;;;17.62;75.95;102329.84;4894085;29;20025;-86
2021/08/28 10:25:21;;;;;;;17.73;9.85;;;;;;;17.69;75.86;102308.19;4876642;29;20035;-85
2021/08/28 10:27:48;;;;;;;17.88;9.98;;;;;;;18.01;74.90;102326.94;4873311;29;20512;-86
2021/08/28 10:30:15;;;;;;;15.52;9.25;;;;;;;18.16;73.41;102335.09;4897630;29;20047;-84
2021/08/28 10:32:43;;;;;;;18.55;9.68;;;;;;;18.13;72.63;102310.16;4895098;29;20136;-86
2021/08/28 10:35:09;;;;;;;19.88;10.00;;;;;;;18.49;71.89;102329.25;4892150;29;20079;-85
2021/08/28 10:37:35;;;;;;;16.80;9.65;;;;;;;18.95;71.11;102326.28;4871952;29;20028;-85
2021/08/28 10:40:01;;;;;;;16.20;9.43;;;;;;;19.13;69.80;102317.63;4882510;29;20071;-86
2021/08/28 10:42:31;;;;;;;20.02;9.93;;;;;;;18.93;68.73;102305.69;4881682;29;20135;-86
2021/08/28 10:44:59;;;;;;;14.00;8.00;;;;;;;19.29;68.42;102328.31;4876064;29;20475;-84
2021/08/28 10:47:30;;;;;;;19.38;8.93;;;;;;;19.58;67.51;102323.69;4879456;29;20115;-85
2021/08/28 10:50:02;;;;;;;16.83;9.25;;;;;;;19.61;67.08;102330.66;4867024;29;20027;-86
2021/08/28 10:52:27;;;;;;;15.05;8.60;;;;;;;19.38;66.71;102331.72;4863529;29;20034;-85
2021/08/28 10:54:58;;;;;;;15.55;8.98;;;;;;;19.37;66.58;102329.19;4883952;29;20024;-85
2021/08/28 10:57:43;;;;;;;16.40;8.57;;;;;;;19.15;66.92;102331.94;4882721;29;20036;-85
2021/08/28 11:00:16;;;;;;;13.23;8.60;;;;;;;19.23;67.02;102333.69;4882685;29;20511;-86
2021/08/28 11:02:56;;;;;;;14.13;8.75;;;;;;;19.39;67.14;102327.94;4881820;29;20027;-86
2021/08/28 11:05:30;;;;;;;16.50;8.77;;;;;;;19.62;66.84;102335.09;4881365;29;20028;-85
2021/08/28 11:08:17;;;;;;;16.25;8.70;;;;;;;20.03;64.89;102327.03;4872588;29;20040;-85
2021/08/28 11:10:44;;;;;;;13.20;7.82;;;;;;;20.39;63.26;102315.00;4885105;29;20047;-86
2021/08/28 11:13:09;;;;;;;15.02;7.93;;;;;;;20.73;63.80;102314.13;4879888;29;20391;-86
2021/08/28 11:15:35;;;;;;;14.55;8.45;;;;;;;20.97;61.21;102318.19;4874095;29;20033;-86
2021/08/28 11:18:14;;;;;;;15.70;8.10;;;;;;;21.04;60.83;102305.38;4881643;29;20035;-85